Time;durP1;ratioP1;P1;durP2;ratioP2;P2;SDS_P1;SDS_P2;PMS_P1;PMS_P2;Temp;Humidity;BMP_temperature;BMP_pressure;BME280_temperature;BME280_humidity;BME280_pressure;Samples;Min_cycle;Max_cycle;Signal;HPM_P1;HPM_P2
2022/08/01 04:04:29;;;;;;;4.07;3.20;;;;;;;18.30;66.52;100263.84;5606272;31;86966;-55
2022/08/01 04:07:35;;;;;;;4.65;3.22;;;;;;;18.30;66.52;100263.84;5584222;32;33396;-55
2022/08/01 04:10:38;;;;;;;4.65;3.42;;;;;;;17.89;67.34;100274.78;5583042;31;34287;-55
2022/08/01 04:13:40;;;;;;;5.68;3.17;;;;;;;17.93;67.12;100273.78;5583915;31;33909;-54
2022/08/01 04:16:45;;;;;;;5.15;3.45;;;;;;;17.98;66.88;100278.19;5583710;31;33513;-55
2022/08/01 04:19:50;;;;;;;4.28;3.40;;;;;;;18.10;67.08;100277.47;5583887;32;33529;-55
2022/08/01 04:22:52;;;;;;;5.80;3.60;;;;;;;18.15;66.15;100282.69;5583803;32;33621;-55
2022/08/01 04:25:57;;;;;;;6.12;3.25;;;;;;;18.32;66.01;100279.81;5583861;32;34278;-55
2022/08/01 04:29:02;;;;;;;4.80;3.20;;;;;;;18.38;66.40;100281.19;5583253;31;34274;-56
2022/08/01 04:32:09;;;;;;;4.65;2.92;;;;;;;18.53;66.06;100272.41;5583954;32;33558;-55
2022/08/01 04:35:16;;;;;;;5.70;3.22;;;;;;;18.73;65.71;100272.69;5583647;32;33540;-55
2022/08/01 04:38:40;;;;;;;6.22;2.95;;;;;;;18.81;64.84;100271.81;5583585;31;33575;-55
2022/08/01 04:41:44;;;;;;;5.50;2.85;;;;;;;18.89;64.06;100270.91;5583372;31;33643;-55
2022/08/01 04:44:46;;;;;;;5.55;2.80;;;;;;;18.87;63.61;100267.72;5583658;32;33600;-55
2022/08/01 04:47:49;;;;;;;4.90;2.85;;;;;;;19.04;63.98;100268.63;5566440;32;33706;-55
2022/08/01 04:50:52;;;;;;;4.07;2.78;;;;;;;19.15;63.26;100264.34;5563885;32;33324;-55
2022/08/01 04:53:54;;;;;;;5.90;2.65;;;;;;;19.18;62.69;100272.59;5564169;32;33672;-55
2022/08/01 04:56:59;;;;;;;6.53;3.72;;;;;;;19.27;63.05;100269.78;5563696;32;35168;-55
2022/08/01 05:00:03;;;;;;;3.77;2.67;;;;;;;19.41;63.17;100272.13;5563675;32;34214;-55
2022/08/01 05:03:05;;;;;;;5.53;3.10;;;;;;;19.53;62.77;100274.03;5581716;31;33741;-55
2022/08/01 05:06:07;;;;;;;9.57;3.22;;;;;;;19.63;63.18;100274.37;5582305;32;33679;-55
2022/08/01 05:09:09;;;;;;;5.68;3.15;;;;;;;19.68;63.81;100279.59;5583469;31;33676;-55
2022/08/01 05:12:12;;;;;;;6.60;3.45;;;;;;;19.74;63.35;100279.34;5583558;32;33668;-55
2022/08/01 05:15:14;;;;;;;6.07;3.37;;;;;;;19.78;63.14;100272.88;5572433;31;33720;-55
2022/08/01 05:18:16;;;;;;;3.67;2.62;;;;;;;19.89;64.00;100275.91;5569847;32;34287;-55
2022/08/01 05:21:29;;;;;;;9.93;3.20;;;;;;;20.02;63.83;100272.00;5570378;32;33568;-55
2022/08/01 05:24:32;;;;;;;5.40;2.90;;;;;;;20.16;64.00;100280.56;5570169;32;34304;-56
2022/08/01 05:27:40;;;;;;;8.35;3.22;;;;;;;20.28;63.67;100278.91;5569995;32;33601;-55
2022/08/01 05:30:43;;;;;;;10.48;2.92;;;;;;;20.49;62.69;100276.75;5570030;32;33608;-55
2022/08/01 05:33:45;;;;;;;8.88;2.87;;;;;;;20.64;61.53;100280.69;5569714;32;33790;-55
2022/08/01 05:36:47;;;;;;;5.22;3.00;;;;;;;20.78;59.61;100278.31;5570178;32;33838;-56
2022/08/01 05:39:52;;;;;;;6.37;2.95;;;;;;;20.97;60.00;100280.31;5570160;32;34370;-55
2022/08/01 05:42:54;;;;;;;4.30;3.00;;;;;;;21.22;59.85;100275.44;5569545;32;34312;-55
2022/08/01 05:45:58;;;;;;;4.62;3.00;;;;;;;21.34;59.26;100275.38;5569752;32;33763;-55
2022/08/01 05:49:01;;;;;;;6.80;3.17;;;;;;;21.52;58.37;100273.06;5550157;32;34382;-55
2022/08/01 05:52:05;;;;;;;4.60;2.90;;;;;;;21.69;55.48;100279.22;5550464;32;33728;-56
2022/08/01 05:55:09;;;;;;;15.05;3.20;;;;;;;21.85;55.14;100277.22;5567243;32;33412;-56
2022/08/01 05:58:11;;;;;;;4.10;2.80;;;;;;;21.98;53.78;100275.16;5559649;32;33738;-55
2022/08/01 06:01:13;;;;;;;11.12;3.08;;;;;;;22.11;54.19;100273.06;5558024;32;34251;-56
2022/08/01 06:04:16;;;;;;;5.90;3.00;;;;;;;22.17;55.37;100264.25;5550213;32;34319;-55
2022/08/01 06:07:18;;;;;;;6.62;3.10;;;;;;;22.27;55.62;100276.53;5549589;32;33766;-56
2022/08/01 06:10:20;;;;;;;5.93;2.85;;;;;;;22.37;56.19;100270.47;5549573;32;34284;-56
2022/08/01 06:13:23;;;;;;;3.17;2.67;;;;;;;22.43;56.14;100285.41;5550085;32;33826;-55
2022/08/01 06:16:25;;;;;;;6.37;2.90;;;;;;;22.55;54.17;100278.19;5550084;32;34373;-55
2022/08/01 06:19:27;;;;;;;7.57;3.12;;;;;;;22.65;53.41;100280.31;5559041;32;33664;-56
2022/08/01 06:22:31;;;;;;;5.35;2.78;;;;;;;22.78;54.01;100273.53;5569170;32;33931;-55
2022/08/01 06:25:33;;;;;;;8.82;3.00;;;;;;;22.90;52.67;100284.25;5564430;32;33581;-55
2022/08/01 06:28:38;;;;;;;6.45;2.55;;;;;;;23.00;52.62;100277.41;5561631;32;33652;-55
2022/08/01 06:31:40;;;;;;;4.72;2.85;;;;;;;23.18;53.04;100274.97;5569683;32;34284;-55
2022/08/01 06:34:42;;;;;;;5.37;2.80;;;;;;;23.28;51.67;100274.34;5569262;32;34282;-55
2022/08/01 06:37:46;;;;;;;4.43;2.70;;;;;;;23.46;51.15;100274.59;5569542;32;33211;-55
2022/08/01 06:40:48;;;;;;;6.78;2.90;;;;;;;23.60;51.23;100282.19;5569302;32;34314;-55
2022/08/01 06:43:50;;;;;;;6.87;2.80;;;;;;;23.66;49.70;100289.72;5568925;32;34215;-56
2022/08/01 06:46:53;;;;;;;3.75;2.60;;;;;;;23.78;49.97;100277.00;5568927;31;34377;-55
2022/08/01 06:49:55;;;;;;;5.22;2.55;;;;;;;23.89;50.46;100278.69;5569425;32;33900;-56
2022/08/01 06:52:58;;;;;;;3.90;2.75;;;;;;;23.95;48.27;100289.31;5569218;32;33362;-56
2022/08/01 06:56:00;;;;;;;3.95;2.78;;;;;;;24.01;48.86;100285.88;5569276;32;34353;-56
2022/08/01 06:59:03;;;;;;;4.10;2.50;;;;;;;24.11;49.08;100270.75;5569133;32;34315;-57
2022/08/01 07:02:06;;;;;;;5.50;3.00;;;;;;;24.19;49.46;100277.84;5569193;32;33669;-56
2022/08/01 07:05:09;;;;;;;5.05;3.03;;;;;;;24.24;48.68;100277.53;5568999;32;34363;-55
2022/08/01 07:08:11;;;;;;;4.65;2.53;;;;;;;24.27;48.23;100275.97;5568968;32;34347;-56
2022/08/01 07:11:13;;;;;;;5.80;2.65;;;;;;;24.38;48.71;100271.41;5569240;32;33545;-56
2022/08/01 07:14:16;;;;;;;4.22;2.70;;;;;;;24.53;48.64;100272.34;5569228;32;34261;-55
2022/08/01 07:17:20;;;;;;;5.85;2.60;;;;;;;24.59;44.27;100265.38;5568007;32;34402;-56
2022/08/01 07:20:22;;;;;;;3.55;2.42;;;;;;;24.64;43.72;100269.72;5569046;32;33691;-56
2022/08/01 07:23:24;;;;;;;5.20;2.50;;;;;;;24.78;39.51;100261.63;5568518;32;33250;-56
2022/08/01 07:26:35;;;;;;;5.82;2.33;;;;;;;24.87;40.87;100269.50;5568842;32;33736;-56
2022/08/01 07:29:37;;;;;;;2.50;2.30;;;;;;;25.05;38.34;100271.22;5568988;32;33764;-56
2022/08/01 07:32:39;;;;;;;13.18;2.80;;;;;;;25.00;40.45;100270.78;5567918;32;34318;-56
2022/08/01 07:35:42;;;;;;;3.12;2.40;;;;;;;25.07;40.31;100271.63;5569035;32;33765;-56
2022/08/01 07:38:45;;;;;;;4.30;2.22;;;;;;;25.18;38.89;100270.94;5568358;32;33671;-56
2022/08/01 07:41:48;;;;;;;4.10;2.55;;;;;;;25.23;40.58;100270.56;5568737;32;33560;-56
2022/08/01 07:45:08;;;;;;;5.50;2.40;;;;;;;25.34;38.63;100276.16;5568692;32;33584;-55
2022/08/01 07:48:10;;;;;;;4.30;2.22;;;;;;;25.44;36.03;100269.94;5568635;31;33679;-55
2022/08/01 07:51:13;;;;;;;8.13;2.72;;;;;;;25.47;36.53;100274.66;5568066;32;34446;-56
2022/08/01 07:54:15;;;;;;;4.53;2.50;;;;;;;25.49;38.08;100272.31;5568758;32;33607;-56
2022/08/01 07:57:17;;;;;;;4.28;2.47;;;;;;;25.57;38.77;100268.44;5567928;32;33642;-56
2022/08/01 08:00:19;;;;;;;3.97;2.37;;;;;;;25.60;36.26;100259.44;5568234;32;33583;-55
2022/08/01 08:03:22;;;;;;;8.15;2.40;;;;;;;25.66;36.78;100262.56;5567938;32;33274;-55
2022/08/01 08:06:24;;;;;;;4.60;2.35;;;;;;;25.72;37.60;100261.81;5568224;32;33772;-55
2022/08/01 08:09:26;;;;;;;5.00;2.42;;;;;;;25.85;37.65;100261.53;5568536;32;33654;-56
2022/08/01 08:12:28;;;;;;;6.03;2.67;;;;;;;25.97;38.65;100266.66;5560728;32;34172;-56
2022/08/01 08:15:31;;;;;;;5.93;2.42;;;;;;;25.99;36.90;100262.38;5558015;32;33648;-55
2022/08/01 08:18:34;;;;;;;5.35;2.53;;;;;;;25.97;36.20;100270.19;5556194;32;33296;-56
2022/08/01 08:21:37;;;;;;;4.37;2.97;;;;;;;25.92;36.64;100272.53;5548893;32;34321;-56
2022/08/01 08:24:40;;;;;;;6.53;2.70;;;;;;;25.92;36.31;100269.78;5548113;32;33626;-55
2022/08/01 08:27:48;;;;;;;4.30;2.60;;;;;;;25.84;35.77;100266.22;5548453;32;34299;-55
2022/08/01 08:30:50;;;;;;;5.40;2.70;;;;;;;25.73;36.89;100271.66;5548235;32;33700;-56
2022/08/01 08:33:52;;;;;;;7.65;2.55;;;;;;;25.59;38.21;100282.53;5548162;32;34250;-56
2022/08/01 08:36:56;;;;;;;5.97;2.75;;;;;;;25.57;37.19;100289.62;5548091;32;33688;-55
2022/08/01 08:40:00;;;;;;;6.75;2.62;;;;;;;25.50;36.85;100282.13;5548583;32;33707;-56
2022/08/01 08:43:04;;;;;;;6.32;2.62;;;;;;;25.36;38.27;100293.00;5548165;32;34458;-55
2022/08/01 08:46:08;;;;;;;6.07;2.78;;;;;;;25.29;38.37;100307.47;5547815;32;33633;-55
2022/08/01 08:49:14;;;;;;;4.35;2.47;;;;;;;25.29;38.94;100304.72;5551806;32;34235;-56
2022/08/01 08:52:19;;;;;;;4.00;2.37;;;;;;;25.25;39.79;100307.44;5570102;32;33856;-56
2022/08/01 08:55:23;;;;;;;3.15;2.28;;;;;;;25.27;37.99;100310.59;5569632;32;33353;-55
2022/08/01 08:58:26;;;;;;;3.53;2.70;;;;;;;25.21;38.13;100312.13;5570021;32;34364;-56
2022/08/01 09:01:34;;;;;;;3.47;2.55;;;;;;;25.21;36.39;100317.59;5570345;32;33652;-56
2022/08/01 09:04:39;;;;;;;3.42;2.50;;;;;;;25.21;37.66;100317.59;5569926;32;33695;-55
2022/08/01 09:07:42;;;;;;;3.20;2.40;;;;;;;25.21;35.90;100316.81;5570460;32;33613;-55
2022/08/01 09:10:44;;;;;;;4.80;2.70;;;;;;;25.17;36.11;100314.06;5569447;32;34364;-56
2022/08/01 09:14:25;;;;;;;3.47;2.33;;;;;;;25.15;37.06;100307.38;5569593;32;34439;-55
2022/08/01 09:17:27;;;;;;;4.55;2.30;;;;;;;25.15;36.24;100308.16;5569544;32;34054;-55
2022/08/01 09:20:29;;;;;;;3.47;2.42;;;;;;;25.28;35.55;100306.69;5570007;32;33879;-55
2022/08/01 09:23:39;;;;;;;4.55;2.60;;;;;;;25.28;37.15;100309.41;5569516;32;33622;-55
2022/08/01 09:26:56;;;;;;;6.03;2.50;;;;;;;25.34;36.30;100311.81;5568969;32;34455;-56
2022/08/01 09:30:16;;;;;;;4.95;2.60;;;;;;;25.35;37.92;100307.91;5569270;32;34466;-55
2022/08/01 09:33:25;;;;;;;4.72;2.50;;;;;;;25.32;37.20;100301.22;5567753;32;33751;-55
2022/08/01 09:36:55;;;;;;;5.32;2.78;;;;;;;25.46;37.46;100308.75;5568051;32;33609;-56
2022/08/01 09:39:57;;;;;;;4.40;2.83;;;;;;;25.46;37.79;100300.50;5564035;32;34325;-55
2022/08/01 09:43:13;;;;;;;5.37;3.10;;;;;;;25.44;37.77;100306.41;5568817;32;33740;-56
2022/08/01 09:46:16;;;;;;;5.68;3.20;;;;;;;25.56;38.47;100310.75;5567659;32;34353;-56
2022/08/01 09:49:34;;;;;;;4.43;2.92;;;;;;;25.61;39.02;100307.66;5569568;32;33650;-56
2022/08/01 09:52:56;;;;;;;4.60;3.00;;;;;;;25.56;39.90;100297.03;5568208;31;33642;-55
2022/08/01 09:56:12;;;;;;;10.88;3.20;;;;;;;25.65;39.46;100302.97;5568583;32;33799;-56
2022/08/01 09:59:16;;;;;;;4.45;3.35;;;;;;;25.65;38.99;100300.22;5568619;32;33613;-56
2022/08/01 10:02:29;;;;;;;7.00;3.62;;;;;;;25.71;39.37;100309.69;5565026;32;33642;-55
2022/08/01 10:05:34;;;;;;;4.68;3.53;;;;;;;25.73;39.15;100312.06;5568671;32;33167;-55
2022/08/01 10:08:56;;;;;;;3.87;3.42;;;;;;;25.83;38.46;100308.59;5569532;32;34339;-56
2022/08/01 10:12:00;;;;;;;6.85;3.45;;;;;;;25.82;39.44;100304.25;5568055;32;33588;-55
2022/08/01 10:15:03;;;;;;;4.95;3.67;;;;;;;25.86;40.34;100307.81;5568588;32;34216;-56
2022/08/01 10:18:08;;;;;;;4.47;3.58;;;;;;;25.89;39.32;100309.78;5566193;32;33772;-56
2022/08/01 10:21:25;;;;;;;6.55;3.90;;;;;;;25.96;39.44;100312.56;5566248;32;34406;-56
2022/08/01 10:24:49;;;;;;;3.90;3.42;;;;;;;26.09;38.47;100298.47;5562542;32;33807;-55
2022/08/01 10:27:56;;;;;;;7.30;3.42;;;;;;;26.16;38.77;100301.28;5565869;32;34525;-56
2022/08/01 10:30:59;;;;;;;5.20;3.50;;;;;;;26.16;39.12;100307.53;5568232;32;34289;-56
2022/08/01 10:34:01;;;;;;;5.18;3.30;;;;;;;26.21;38.88;100311.87;5567895;32;33764;-56
2022/08/01 10:37:05;;;;;;;7.30;3.62;;;;;;;26.19;38.77;100305.97;5568450;32;33869;-55
2022/08/01 10:40:11;;;;;;;7.20;3.10;;;;;;;26.21;39.08;100303.62;5567817;32;34295;-55
2022/08/01 10:43:31;;;;;;;4.75;3.58;;;;;;;26.30;39.86;100306.00;5569470;32;33802;-56
2022/08/01 10:46:38;;;;;;;6.37;3.53;;;;;;;26.51;38.46;100299.78;5567183;32;33738;-55
2022/08/01 10:49:54;;;;;;;3.75;3.17;;;;;;;26.57;37.90;100293.53;5567565;32;34441;-55
2022/08/01 10:53:05;;;;;;;;;;;;;;;26.63;37.82;100283.72;5568736;32;33684;-56
2022/08/01 10:56:18;;;;;;;3.67;3.00;;;;;;;26.59;37.40;100285.69;5568711;32;34650;-55
2022/08/01 10:59:25;;;;;;;7.00;3.50;;;;;;;26.66;37.98;100288.44;5567891;32;33744;-55
2022/08/01 11:03:03;;;;;;;4.55;3.35;;;;;;;26.61;38.37;100277.03;5569167;32;33426;-55
2022/08/01 11:06:06;;;;;;;3.53;3.20;;;;;;;26.74;37.99;100277.44;5568757;32;33512;-55
2022/08/01 11:09:12;;;;;;;4.35;3.17;;;;;;;26.78;37.62;100276.25;5567342;32;34341;-55
2022/08/01 11:12:18;;;;;;;3.75;3.40;;;;;;;26.91;39.10;100268.38;5567971;32;33648;-56
2022/08/01 11:15:26;;;;;;;3.83;3.40;;;;;;;26.91;39.29;100265.62;5568436;32;33234;-55
2022/08/01 11:18:32;;;;;;;4.97;3.28;;;;;;;27.03;37.75;100279.00;5567354;32;33622;-56
2022/08/01 11:21:54;;;;;;;5.07;3.12;;;;;;;27.01;38.34;100264.84;5568297;32;33355;-56
2022/08/01 11:25:01;;;;;;;4.75;3.58;;;;;;;27.11;37.71;100263.25;5567983;32;33640;-56
2022/08/01 11:28:13;;;;;;;3.47;3.17;;;;;;;27.16;37.87;100263.69;5566179;32;34378;-56
2022/08/01 11:31:16;;;;;;;6.00;3.47;;;;;;;27.15;38.68;100266.81;5567123;32;33916;-55
2022/08/01 11:34:19;;;;;;;5.82;3.22;;;;;;;27.20;38.20;100265.62;5567430;32;33828;-56
2022/08/01 11:37:28;;;;;;;4.93;3.47;;;;;;;27.16;38.30;100257.37;5568420;32;34311;-56
2022/08/01 11:40:32;;;;;;;7.80;3.50;;;;;;;27.19;37.32;100255.81;5567961;32;33766;-56
2022/08/01 11:43:34;;;;;;;4.60;3.40;;;;;;;27.12;37.83;100256.59;5565067;32;33808;-56
2022/08/01 11:46:48;;;;;;;6.05;3.70;;;;;;;27.15;37.55;100264.88;5555029;32;33841;-55
2022/08/01 11:49:54;;;;;;;4.65;3.80;;;;;;;27.05;38.42;100257.37;5554716;32;33760;-55
2022/08/01 11:53:03;;;;;;;6.37;3.78;;;;;;;26.96;38.98;100257.00;5555786;32;33613;-55
2022/08/01 11:56:05;;;;;;;5.60;3.70;;;;;;;27.01;39.67;100264.06;5568577;32;33413;-56
2022/08/01 11:59:07;;;;;;;5.70;3.87;;;;;;;26.89;39.50;100260.53;5567832;32;33690;-56
2022/08/01 12:02:23;;;;;;;6.07;3.42;;;;;;;26.98;39.58;100262.88;5567286;32;34259;-56
2022/08/01 12:05:33;;;;;;;;;;;;;;;27.00;38.52;100255.03;5566677;32;34434;-55
2022/08/01 12:08:36;;;;;;;4.53;3.22;;;;;;;27.02;39.16;100249.09;5568490;32;34033;-55
2022/08/01 12:11:38;;;;;;;7.87;3.72;;;;;;;27.04;39.16;100252.25;5566950;32;33791;-55
2022/08/01 12:14:41;;;;;;;4.12;3.40;;;;;;;27.16;38.47;100249.91;5568200;32;33821;-55
2022/08/01 12:17:57;;;;;;;8.43;3.50;;;;;;;27.37;37.15;100256.53;5563447;32;33664;-56
2022/08/01 12:21:04;;;;;;;5.85;3.67;;;;;;;27.46;37.76;100254.16;5562524;31;34307;-56
2022/08/01 12:24:07;;;;;;;4.43;2.87;;;;;;;27.51;36.35;100253.75;5567911;32;34361;-56
2022/08/01 12:27:12;;;;;;;5.78;3.35;;;;;;;27.53;35.94;100250.59;5568568;32;34560;-56
2022/08/01 12:30:24;;;;;;;4.68;3.37;;;;;;;27.62;37.53;100249.00;5569190;32;33707;-56
2022/08/01 12:33:27;;;;;;;6.20;3.80;;;;;;;27.56;38.30;100249.81;5569162;32;33875;-56
2022/08/01 12:36:29;;;;;;;4.28;3.20;;;;;;;27.56;37.49;100253.34;5567767;32;33758;-56
2022/08/01 12:39:33;;;;;;;5.03;3.15;;;;;;;27.53;37.99;100254.13;5567419;32;33999;-56
2022/08/01 12:42:39;;;;;;;4.82;3.25;;;;;;;27.51;37.52;100244.69;5568723;32;33726;-56
2022/08/01 12:45:43;;;;;;;8.15;3.37;;;;;;;27.61;37.40;100246.63;5567900;32;33772;-56
2022/08/01 12:48:58;;;;;;;3.17;2.83;;;;;;;27.66;36.76;100235.22;5566627;32;33714;-55
2022/08/01 12:52:04;;;;;;;3.50;2.70;;;;;;;27.69;35.79;100239.91;5569775;32;34264;-55
2022/08/01 12:55:17;;;;;;;8.88;3.03;;;;;;;27.62;36.59;100232.47;5569351;32;33728;-56
2022/08/01 12:58:21;;;;;;;5.20;3.30;;;;;;;27.63;35.80;100241.50;5568075;32;33629;-56
2022/08/01 13:01:26;;;;;;;4.28;3.25;;;;;;;27.47;36.68;100244.72;5570743;32;33734;-55
2022/08/01 13:04:29;;;;;;;3.92;3.00;;;;;;;27.41;37.17;100238.81;5569395;31;33721;-56
2022/08/01 13:07:40;;;;;;;5.22;3.30;;;;;;;27.45;38.11;100241.59;5567741;32;33880;-55
2022/08/01 13:10:47;;;;;;;5.03;3.20;;;;;;;27.55;36.89;100239.97;5569091;32;33690;-56
2022/08/01 13:13:51;;;;;;;5.68;2.85;;;;;;;27.57;36.14;100232.88;5570254;32;33683;-56
2022/08/01 13:16:53;;;;;;;4.95;3.10;;;;;;;27.84;35.48;100227.66;5570044;32;34416;-56
2022/08/01 13:19:59;;;;;;;5.30;3.05;;;;;;;27.72;36.06;100227.31;5568294;32;33587;-57
2022/08/01 13:23:20;;;;;;;16.87;3.05;;;;;;;27.77;37.28;100224.16;5567324;32;33970;-56
2022/08/01 13:26:52;;;;;;;2.60;2.40;;;;;;;27.84;36.15;100221.38;5570113;32;33579;-55
2022/08/01 13:30:10;;;;;;;4.47;3.03;;;;;;;27.92;35.77;100213.87;5567822;32;34257;-56
2022/08/01 13:33:12;;;;;;;4.15;3.05;;;;;;;27.82;36.85;100212.75;5564795;32;33691;-56
2022/08/01 13:36:16;;;;;;;5.55;2.87;;;;;;;27.85;37.30;100217.44;5568932;32;33787;-55
2022/08/01 13:42:39;;;;;;;4.40;3.17;;;;;;;27.81;36.58;100213.91;5568585;32;34437;-56
2022/08/01 13:45:41;;;;;;;5.28;3.08;;;;;;;27.85;36.54;100211.94;5568130;31;34301;-56
2022/08/01 13:48:46;;;;;;;7.03;4.12;;;;;;;27.78;37.03;100207.25;5569031;32;33754;-56
2022/08/01 13:51:51;;;;;;;6.18;3.08;;;;;;;27.83;37.70;100209.56;5569828;32;34533;-56
2022/08/01 13:54:53;;;;;;;6.82;3.65;;;;;;;27.82;37.43;100205.25;5570011;32;33691;-56
2022/08/01 13:57:55;;;;;;;7.60;2.97;;;;;;;27.74;37.54;100202.91;5570066;32;33605;-55
2022/08/01 14:00:58;;;;;;;3.72;3.25;;;;;;;27.80;38.46;100206.84;5567780;32;34374;-55
2022/08/01 14:04:02;;;;;;;6.03;3.28;;;;;;;27.78;38.47;100203.69;5566861;32;34398;-56
2022/08/01 14:07:04;;;;;;;4.30;3.05;;;;;;;27.73;38.42;100207.63;5565293;32;34320;-56
2022/08/01 14:10:13;;;;;;;3.85;2.78;;;;;;;27.78;38.76;100207.25;5568888;32;34242;-56
2022/08/01 14:13:21;;;;;;;5.45;2.97;;;;;;;27.84;38.51;100216.66;5568940;32;33856;-56
2022/08/01 14:16:25;;;;;;;4.72;3.15;;;;;;;27.79;38.21;100206.06;5567741;32;33701;-55
2022/08/01 14:19:27;;;;;;;8.82;3.20;;;;;;;27.81;38.14;100203.66;5565939;31;33261;-55
2022/08/01 14:22:40;;;;;;;16.58;3.25;;;;;;;27.81;38.28;100202.91;5564586;31;33663;-56
2022/08/01 14:25:43;;;;;;;6.40;3.20;;;;;;;27.83;38.59;100215.09;5568845;32;33714;-56
2022/08/01 14:29:05;;;;;;;7.12;3.55;;;;;;;27.98;37.40;100218.56;5569589;32;34256;-56
2022/08/01 14:32:07;;;;;;;5.45;2.67;;;;;;;27.89;37.13;100218.22;5567635;32;33694;-56
2022/08/01 14:35:10;;;;;;;3.87;2.97;;;;;;;27.83;37.39;100217.06;5568071;32;33679;-55
2022/08/01 14:38:13;;;;;;;4.78;2.53;;;;;;;27.89;37.45;100212.69;5568579;32;33764;-55
2022/08/01 14:41:30;;;;;;;4.97;3.03;;;;;;;27.98;37.21;100215.00;5567667;32;33762;-56
2022/08/01 14:44:32;;;;;;;3.45;2.65;;;;;;;27.92;37.43;100217.41;5569139;32;33736;-56
2022/08/01 14:47:39;;;;;;;3.80;2.70;;;;;;;28.03;36.62;100217.34;5563511;31;33620;-55
2022/08/01 14:50:41;;;;;;;3.47;2.50;;;;;;;27.98;36.97;100209.47;5569489;32;34275;-55
2022/08/01 14:53:44;;;;;;;3.10;2.67;;;;;;;27.87;37.17;100213.09;5568554;32;34240;-56
